sensor_id;sensor_type;location;lat;lon;timestamp;P1;durP1;ratioP1;P2;durP2;ratioP2
54871;SDS011;43914;57.680;11.982;2023-03-23T00:01:13;35.90;;;4.80;;
54871;SDS011;43914;57.680;11.982;2023-03-23T00:03:40;41.10;;;5.30;;
54871;SDS011;43914;57.680;11.982;2023-03-23T00:06:06;36.70;;;5.30;;
54871;SDS011;43914;57.680;11.982;2023-03-23T00:08:34;30.90;;;4.80;;
54871;SDS011;43914;57.680;11.982;2023-03-23T00:11:13;32.40;;;5.80;;
54871;SDS011;43914;57.680;11.982;2023-03-23T00:13:41;26.40;;;4.80;;
54871;SDS011;43914;57.680;11.982;2023-03-23T00:16:08;26.00;;;4.40;;
54871;SDS011;43914;57.680;11.982;2023-03-23T00:21:08;26.20;;;4.50;;
54871;SDS011;43914;57.680;11.982;2023-03-23T00:23:33;29.10;;;4.40;;
54871;SDS011;43914;57.680;11.982;2023-03-23T00:25:58;23.20;;;4.10;;
54871;SDS011;43914;57.680;11.982;2023-03-23T00:28:24;32.20;;;5.20;;
54871;SDS011;43914;57.680;11.982;2023-03-23T00:30:56;29.50;;;4.60;;
54871;SDS011;43914;57.680;11.982;2023-03-23T00:33:29;31.00;;;4.50;;
54871;SDS011;43914;57.680;11.982;2023-03-23T00:35:58;34.50;;;5.60;;
54871;SDS011;43914;57.680;11.982;2023-03-23T00:38:24;30.00;;;4.70;;
54871;SDS011;43914;57.680;11.982;2023-03-23T00:40:50;32.30;;;5.70;;
54871;SDS011;43914;57.680;11.982;2023-03-23T00:43:17;33.10;;;6.00;;
54871;SDS011;43914;57.680;11.982;2023-03-23T00:45:44;32.40;;;4.90;;
54871;SDS011;43914;57.680;11.982;2023-03-23T00:48:14;33.50;;;5.30;;
54871;SDS011;43914;57.680;11.982;2023-03-23T00:50:40;37.00;;;4.80;;
54871;SDS011;43914;57.680;11.982;2023-03-23T00:53:06;30.30;;;4.40;;
54871;SDS011;43914;57.680;11.982;2023-03-23T00:55:32;25.10;;;4.50;;
54871;SDS011;43914;57.680;11.982;2023-03-23T00:57:58;28.30;;;4.70;;
54871;SDS011;43914;57.680;11.982;2023-03-23T01:00:24;29.50;;;4.90;;
54871;SDS011;43914;57.680;11.982;2023-03-23T01:02:50;26.10;;;4.20;;
54871;SDS011;43914;57.680;11.982;2023-03-23T01:05:18;33.50;;;5.70;;
54871;SDS011;43914;57.680;11.982;2023-03-23T01:07:44;23.90;;;4.00;;
54871;SDS011;43914;57.680;11.982;2023-03-23T01:10:11;23.30;;;4.40;;
54871;SDS011;43914;57.680;11.982;2023-03-23T01:12:41;25.70;;;4.10;;
54871;SDS011;43914;57.680;11.982;2023-03-23T01:15:08;25.30;;;4.30;;
54871;SDS011;43914;57.680;11.982;2023-03-23T01:17:34;34.70;;;5.60;;
54871;SDS011;43914;57.680;11.982;2023-03-23T01:20:00;23.10;;;4.90;;
54871;SDS011;43914;57.680;11.982;2023-03-23T01:22:25;32.10;;;5.40;;
54871;SDS011;43914;57.680;11.982;2023-03-23T01:24:51;29.30;;;4.80;;
54871;SDS011;43914;57.680;11.982;2023-03-23T01:27:16;33.80;;;6.00;;
54871;SDS011;43914;57.680;11.982;2023-03-23T01:29:41;30.70;;;5.50;;
54871;SDS011;43914;57.680;11.982;2023-03-23T01:32:07;28.20;;;4.80;;
54871;SDS011;43914;57.680;11.982;2023-03-23T01:34:32;29.50;;;5.00;;
54871;SDS011;43914;57.680;11.982;2023-03-23T01:36:58;28.90;;;4.20;;
54871;SDS011;43914;57.680;11.982;2023-03-23T01:39:24;31.20;;;4.80;;
54871;SDS011;43914;57.680;11.982;2023-03-23T01:41:49;34.10;;;5.30;;
54871;SDS011;43914;57.680;11.982;2023-03-23T01:46:40;19.80;;;3.80;;
54871;SDS011;43914;57.680;11.982;2023-03-23T01:49:07;25.90;;;4.20;;
54871;SDS011;43914;57.680;11.982;2023-03-23T01:51:37;21.10;;;4.00;;
54871;SDS011;43914;57.680;11.982;2023-03-23T01:54:12;26.90;;;4.40;;
54871;SDS011;43914;57.680;11.982;2023-03-23T01:56:45;27.80;;;4.60;;
54871;SDS011;43914;57.680;11.982;2023-03-23T01:59:13;30.70;;;4.50;;
54871;SDS011;43914;57.680;11.982;2023-03-23T02:01:40;30.10;;;4.90;;
54871;SDS011;43914;57.680;11.982;2023-03-23T02:04:10;23.30;;;4.30;;
54871;SDS011;43914;57.680;11.982;2023-03-23T02:06:40;29.70;;;4.50;;
54871;SDS011;43914;57.680;11.982;2023-03-23T02:09:06;28.00;;;4.90;;
54871;SDS011;43914;57.680;11.982;2023-03-23T02:11:32;24.50;;;4.00;;
54871;SDS011;43914;57.680;11.982;2023-03-23T02:13:58;22.80;;;4.00;;
54871;SDS011;43914;57.680;11.982;2023-03-23T02:19:19;23.90;;;4.20;;
54871;SDS011;43914;57.680;11.982;2023-03-23T02:28:07;29.10;;;4.70;;
54871;SDS011;43914;57.680;11.982;2023-03-23T02:33:33;26.10;;;4.20;;
54871;SDS011;43914;57.680;11.982;2023-03-23T02:36:11;24.70;;;4.90;;
54871;SDS011;43914;57.680;11.982;2023-03-23T02:41:26;30.50;;;4.50;;
54871;SDS011;43914;57.680;11.982;2023-03-23T02:43:56;30.40;;;4.30;;
54871;SDS011;43914;57.680;11.982;2023-03-23T02:46:22;26.40;;;4.40;;
54871;SDS011;43914;57.680;11.982;2023-03-23T02:48:50;26.30;;;4.90;;
54871;SDS011;43914;57.680;11.982;2023-03-23T02:51:21;30.80;;;5.10;;
54871;SDS011;43914;57.680;11.982;2023-03-23T02:53:49;23.70;;;4.70;;
54871;SDS011;43914;57.680;11.982;2023-03-23T02:56:18;27.30;;;4.90;;
54871;SDS011;43914;57.680;11.982;2023-03-23T02:58:49;20.50;;;4.20;;
54871;SDS011;43914;57.680;11.982;2023-03-23T03:03:57;22.70;;;4.50;;
54871;SDS011;43914;57.680;11.982;2023-03-23T03:12:30;21.50;;;4.20;;
54871;SDS011;43914;57.680;11.982;2023-03-23T03:15:05;25.60;;;4.80;;
54871;SDS011;43914;57.680;11.982;2023-03-23T03:17:33;20.20;;;4.40;;
54871;SDS011;43914;57.680;11.982;2023-03-23T03:20:02;18.90;;;4.20;;
54871;SDS011;43914;57.680;11.982;2023-03-23T03:22:35;21.00;;;4.30;;
54871;SDS011;43914;57.680;11.982;2023-03-23T03:25:03;21.20;;;4.10;;
54871;SDS011;43914;57.680;11.982;2023-03-23T03:27:30;28.30;;;5.20;;
54871;SDS011;43914;57.680;11.982;2023-03-23T03:29:57;29.00;;;4.90;;
54871;SDS011;43914;57.680;11.982;2023-03-23T03:32:30;23.20;;;4.40;;
54871;SDS011;43914;57.680;11.982;2023-03-23T03:35:03;25.40;;;4.70;;
54871;SDS011;43914;57.680;11.982;2023-03-23T03:37:36;17.40;;;3.30;;
54871;SDS011;43914;57.680;11.982;2023-03-23T03:42:39;22.00;;;4.60;;
54871;SDS011;43914;57.680;11.982;2023-03-23T03:45:07;24.90;;;4.50;;
54871;SDS011;43914;57.680;11.982;2023-03-23T03:47:34;22.20;;;4.60;;
54871;SDS011;43914;57.680;11.982;2023-03-23T03:50:00;19.20;;;4.40;;
54871;SDS011;43914;57.680;11.982;2023-03-23T03:52:26;27.90;;;4.50;;
54871;SDS011;43914;57.680;11.982;2023-03-23T03:54:52;20.70;;;4.10;;
54871;SDS011;43914;57.680;11.982;2023-03-23T03:57:18;22.30;;;3.90;;
54871;SDS011;43914;57.680;11.982;2023-03-23T03:59:44;19.60;;;4.00;;
54871;SDS011;43914;57.680;11.982;2023-03-23T04:02:11;22.40;;;4.40;;
54871;SDS011;43914;57.680;11.982;2023-03-23T04:04:40;20.40;;;4.00;;
54871;SDS011;43914;57.680;11.982;2023-03-23T04:07:06;27.90;;;4.50;;
54871;SDS011;43914;57.680;11.982;2023-03-23T04:09:35;21.30;;;3.90;;
54871;SDS011;43914;57.680;11.982;2023-03-23T04:12:02;23.70;;;5.00;;
54871;SDS011;43914;57.680;11.982;2023-03-23T04:14:28;25.10;;;4.70;;
54871;SDS011;43914;57.680;11.982;2023-03-23T04:16:53;20.00;;;4.50;;
54871;SDS011;43914;57.680;11.982;2023-03-23T04:19:22;21.10;;;4.70;;
54871;SDS011;43914;57.680;11.982;2023-03-23T04:21:48;17.50;;;4.10;;
54871;SDS011;43914;57.680;11.982;2023-03-23T04:24:14;20.80;;;4.50;;
54871;SDS011;43914;57.680;11.982;2023-03-23T04:26:40;17.40;;;4.50;;
54871;SDS011;43914;57.680;11.982;2023-03-23T04:29:09;22.10;;;4.40;;
54871;SDS011;43914;57.680;11.982;2023-03-23T04:31:35;23.40;;;5.00;;
54871;SDS011;43914;57.680;11.982;2023-03-23T04:34:01;22.90;;;4.80;;
54871;SDS011;43914;57.680;11.982;2023-03-23T04:36:27;21.10;;;5.40;;
54871;SDS011;43914;57.680;11.982;2023-03-23T04:38:56;22.40;;;4.60;;
54871;SDS011;43914;57.680;11.982;2023-03-23T04:41:22;20.30;;;4.70;;
54871;SDS011;43914;57.680;11.982;2023-03-23T04:43:49;22.70;;;4.60;;
54871;SDS011;43914;57.680;11.982;2023-03-23T04:46:17;23.50;;;5.70;;
54871;SDS011;43914;57.680;11.982;2023-03-23T04:48:44;18.40;;;4.50;;
54871;SDS011;43914;57.680;11.982;2023-03-23T04:51:10;18.90;;;4.80;;
54871;SDS011;43914;57.680;11.982;2023-03-23T04:53:37;23.20;;;5.10;;
54871;SDS011;43914;57.680;11.982;2023-03-23T04:56:03;17.30;;;4.00;;
54871;SDS011;43914;57.680;11.982;2023-03-23T04:58:28;18.90;;;5.00;;
54871;SDS011;43914;57.680;11.982;2023-03-23T05:00:59;18.40;;;4.80;;
54871;SDS011;43914;57.680;11.982;2023-03-23T05:03:29;16.40;;;4.90;;
54871;SDS011;43914;57.680;11.982;2023-03-23T05:05:55;17.60;;;5.40;;
54871;SDS011;43914;57.680;11.982;2023-03-23T05:08:21;13.50;;;3.50;;
54871;SDS011;43914;57.680;11.982;2023-03-23T05:10:50;19.20;;;4.70;;
54871;SDS011;43914;57.680;11.982;2023-03-23T05:13:20;18.30;;;5.00;;
54871;SDS011;43914;57.680;11.982;2023-03-23T05:15:46;17.90;;;4.90;;
54871;SDS011;43914;57.680;11.982;2023-03-23T05:18:12;15.70;;;5.00;;
54871;SDS011;43914;57.680;11.982;2023-03-23T05:20:37;14.50;;;5.00;;
54871;SDS011;43914;57.680;11.982;2023-03-23T05:23:03;19.00;;;5.20;;
54871;SDS011;43914;57.680;11.982;2023-03-23T05:25:29;16.50;;;5.00;;
54871;SDS011;43914;57.680;11.982;2023-03-23T05:27:55;20.00;;;4.90;;
54871;SDS011;43914;57.680;11.982;2023-03-23T05:30:20;20.30;;;5.00;;
54871;SDS011;43914;57.680;11.982;2023-03-23T05:32:46;17.10;;;5.40;;
54871;SDS011;43914;57.680;11.982;2023-03-23T05:35:16;19.80;;;4.90;;
54871;SDS011;43914;57.680;11.982;2023-03-23T05:37:43;16.10;;;5.40;;
54871;SDS011;43914;57.680;11.982;2023-03-23T05:40:10;18.40;;;6.00;;
54871;SDS011;43914;57.680;11.982;2023-03-23T05:42:37;15.50;;;5.10;;
54871;SDS011;43914;57.680;11.982;2023-03-23T05:45:06;14.60;;;5.40;;
54871;SDS011;43914;57.680;11.982;2023-03-23T05:47:34;17.00;;;5.30;;
54871;SDS011;43914;57.680;11.982;2023-03-23T05:50:01;13.90;;;5.40;;
54871;SDS011;43914;57.680;11.982;2023-03-23T05:52:27;12.40;;;3.70;;
54871;SDS011;43914;57.680;11.982;2023-03-23T05:54:52;13.90;;;4.80;;
54871;SDS011;43914;57.680;11.982;2023-03-23T05:57:18;13.80;;;4.70;;
54871;SDS011;43914;57.680;11.982;2023-03-23T05:59:46;13.40;;;4.20;;
54871;SDS011;43914;57.680;11.982;2023-03-23T06:02:13;16.10;;;5.00;;
54871;SDS011;43914;57.680;11.982;2023-03-23T06:04:39;14.00;;;4.50;;
54871;SDS011;43914;57.680;11.982;2023-03-23T06:07:06;14.10;;;4.20;;
54871;SDS011;43914;57.680;11.982;2023-03-23T06:09:32;16.40;;;5.40;;
54871;SDS011;43914;57.680;11.982;2023-03-23T06:11:58;11.60;;;4.10;;
54871;SDS011;43914;57.680;11.982;2023-03-23T06:14:23;19.90;;;5.30;;
54871;SDS011;43914;57.680;11.982;2023-03-23T06:16:49;13.40;;;4.60;;
54871;SDS011;43914;57.680;11.982;2023-03-23T06:19:15;14.20;;;4.40;;
54871;SDS011;43914;57.680;11.982;2023-03-23T06:21:41;13.60;;;4.50;;
54871;SDS011;43914;57.680;11.982;2023-03-23T06:24:08;18.80;;;5.00;;
54871;SDS011;43914;57.680;11.982;2023-03-23T06:26:36;15.20;;;4.90;;
54871;SDS011;43914;57.680;11.982;2023-03-23T06:29:03;15.70;;;4.50;;
54871;SDS011;43914;57.680;11.982;2023-03-23T06:31:36;13.60;;;4.70;;
54871;SDS011;43914;57.680;11.982;2023-03-23T06:34:04;11.50;;;5.10;;
54871;SDS011;43914;57.680;11.982;2023-03-23T06:36:29;14.60;;;5.40;;
54871;SDS011;43914;57.680;11.982;2023-03-23T06:38:55;12.90;;;4.90;;
54871;SDS011;43914;57.680;11.982;2023-03-23T06:41:21;12.70;;;4.70;;
54871;SDS011;43914;57.680;11.982;2023-03-23T06:43:47;14.10;;;4.90;;
54871;SDS011;43914;57.680;11.982;2023-03-23T06:46:12;17.40;;;6.80;;
54871;SDS011;43914;57.680;11.982;2023-03-23T06:48:38;15.50;;;5.40;;
54871;SDS011;43914;57.680;11.982;2023-03-23T06:51:04;15.00;;;6.90;;
54871;SDS011;43914;57.680;11.982;2023-03-23T06:53:29;16.00;;;6.60;;
54871;SDS011;43914;57.680;11.982;2023-03-23T06:55:55;17.80;;;5.90;;
54871;SDS011;43914;57.680;11.982;2023-03-23T06:58:22;17.40;;;6.40;;
54871;SDS011;43914;57.680;11.982;2023-03-23T07:00:52;13.10;;;6.30;;
54871;SDS011;43914;57.680;11.982;2023-03-23T07:03:20;15.00;;;6.40;;
54871;SDS011;43914;57.680;11.982;2023-03-23T07:05:46;14.50;;;6.90;;
54871;SDS011;43914;57.680;11.982;2023-03-23T07:08:12;16.10;;;7.20;;
54871;SDS011;43914;57.680;11.982;2023-03-23T07:10:38;16.60;;;8.10;;
54871;SDS011;43914;57.680;11.982;2023-03-23T07:13:03;18.70;;;7.80;;
54871;SDS011;43914;57.680;11.982;2023-03-23T07:15:29;15.30;;;6.50;;
54871;SDS011;43914;57.680;11.982;2023-03-23T07:17:54;19.70;;;7.60;;
54871;SDS011;43914;57.680;11.982;2023-03-23T07:20:20;15.60;;;6.00;;
54871;SDS011;43914;57.680;11.982;2023-03-23T07:22:46;16.30;;;6.80;;
54871;SDS011;43914;57.680;11.982;2023-03-23T07:25:13;19.30;;;7.70;;
54871;SDS011;43914;57.680;11.982;2023-03-23T07:27:38;18.50;;;8.10;;
54871;SDS011;43914;57.680;11.982;2023-03-23T07:30:04;21.20;;;7.80;;
54871;SDS011;43914;57.680;11.982;2023-03-23T07:32:30;18.20;;;7.50;;
54871;SDS011;43914;57.680;11.982;2023-03-23T07:34:56;19.90;;;8.00;;
54871;SDS011;43914;57.680;11.982;2023-03-23T07:37:21;14.40;;;6.10;;
54871;SDS011;43914;57.680;11.982;2023-03-23T07:39:48;18.70;;;8.00;;
54871;SDS011;43914;57.680;11.982;2023-03-23T07:42:13;14.50;;;7.00;;
54871;SDS011;43914;57.680;11.982;2023-03-23T07:44:39;16.90;;;6.80;;
54871;SDS011;43914;57.680;11.982;2023-03-23T07:47:04;14.80;;;6.50;;
54871;SDS011;43914;57.680;11.982;2023-03-23T07:49:29;18.00;;;6.70;;
54871;SDS011;43914;57.680;11.982;2023-03-23T07:51:56;18.30;;;8.80;;
54871;SDS011;43914;57.680;11.982;2023-03-23T07:54:22;19.80;;;8.30;;
54871;SDS011;43914;57.680;11.982;2023-03-23T07:56:48;18.00;;;6.90;;
54871;SDS011;43914;57.680;11.982;2023-03-23T07:59:14;15.10;;;7.10;;
54871;SDS011;43914;57.680;11.982;2023-03-23T08:01:40;13.70;;;6.60;;
54871;SDS011;43914;57.680;11.982;2023-03-23T08:04:06;14.90;;;6.70;;
54871;SDS011;43914;57.680;11.982;2023-03-23T08:06:33;13.80;;;7.00;;
54871;SDS011;43914;57.680;11.982;2023-03-23T08:08:59;15.30;;;7.40;;
54871;SDS011;43914;57.680;11.982;2023-03-23T08:11:25;18.00;;;8.00;;
54871;SDS011;43914;57.680;11.982;2023-03-23T08:13:52;17.20;;;8.00;;
54871;SDS011;43914;57.680;11.982;2023-03-23T08:16:18;18.80;;;8.40;;
54871;SDS011;43914;57.680;11.982;2023-03-23T08:18:44;16.80;;;7.60;;
54871;SDS011;43914;57.680;11.982;2023-03-23T08:21:11;13.50;;;6.80;;
54871;SDS011;43914;57.680;11.982;2023-03-23T08:23:37;12.60;;;5.90;;
54871;SDS011;43914;57.680;11.982;2023-03-23T08:26:05;17.80;;;6.90;;
54871;SDS011;43914;57.680;11.982;2023-03-23T08:28:33;18.50;;;7.30;;
54871;SDS011;43914;57.680;11.982;2023-03-23T08:31:00;13.90;;;6.00;;
54871;SDS011;43914;57.680;11.982;2023-03-23T08:33:31;13.10;;;5.70;;
54871;SDS011;43914;57.680;11.982;2023-03-23T08:35:58;10.40;;;4.50;;
54871;SDS011;43914;57.680;11.982;2023-03-23T08:38:24;12.50;;;5.00;;
54871;SDS011;43914;57.680;11.982;2023-03-23T08:40:50;10.40;;;4.80;;
54871;SDS011;43914;57.680;11.982;2023-03-23T08:43:19;10.40;;;4.70;;
54871;SDS011;43914;57.680;11.982;2023-03-23T08:45:45;10.40;;;5.10;;
54871;SDS011;43914;57.680;11.982;2023-03-23T08:48:10;12.20;;;5.60;;
54871;SDS011;43914;57.680;11.982;2023-03-23T08:50:36;11.10;;;5.60;;
54871;SDS011;43914;57.680;11.982;2023-03-23T08:53:02;12.10;;;5.00;;
54871;SDS011;43914;57.680;11.982;2023-03-23T08:55:28;11.20;;;5.50;;
54871;SDS011;43914;57.680;11.982;2023-03-23T08:57:54;9.80;;;4.80;;
54871;SDS011;43914;57.680;11.982;2023-03-23T09:00:20;9.70;;;4.10;;
54871;SDS011;43914;57.680;11.982;2023-03-23T09:02:50;12.50;;;5.00;;
54871;SDS011;43914;57.680;11.982;2023-03-23T09:05:18;11.70;;;4.90;;
54871;SDS011;43914;57.680;11.982;2023-03-23T09:07:47;10.90;;;4.60;;
54871;SDS011;43914;57.680;11.982;2023-03-23T09:10:15;9.20;;;3.80;;
54871;SDS011;43914;57.680;11.982;2023-03-23T09:12:42;10.70;;;4.40;;
54871;SDS011;43914;57.680;11.982;2023-03-23T09:15:12;12.40;;;4.90;;
54871;SDS011;43914;57.680;11.982;2023-03-23T09:17:40;10.50;;;4.10;;
54871;SDS011;43914;57.680;11.982;2023-03-23T09:20:10;10.10;;;4.60;;
54871;SDS011;43914;57.680;11.982;2023-03-23T09:22:41;11.20;;;4.70;;
54871;SDS011;43914;57.680;11.982;2023-03-23T09:25:15;12.80;;;4.70;;
54871;SDS011;43914;57.680;11.982;2023-03-23T09:27:45;9.70;;;4.40;;
54871;SDS011;43914;57.680;11.982;2023-03-23T09:30:14;13.00;;;5.40;;
54871;SDS011;43914;57.680;11.982;2023-03-23T09:32:40;11.50;;;5.30;;
54871;SDS011;43914;57.680;11.982;2023-03-23T09:35:09;13.00;;;6.20;;
54871;SDS011;43914;57.680;11.982;2023-03-23T09:37:37;13.80;;;6.50;;
54871;SDS011;43914;57.680;11.982;2023-03-23T09:40:04;12.90;;;7.20;;
54871;SDS011;43914;57.680;11.982;2023-03-23T09:50:40;12.60;;;6.60;;
54871;SDS011;43914;57.680;11.982;2023-03-23T09:53:16;13.90;;;7.20;;
54871;SDS011;43914;57.680;11.982;2023-03-23T09:55:46;13.40;;;7.00;;
54871;SDS011;43914;57.680;11.982;2023-03-23T10:01:15;13.20;;;7.00;;
54871;SDS011;43914;57.680;11.982;2023-03-23T10:04:03;14.40;;;7.80;;
54871;SDS011;43914;57.680;11.982;2023-03-23T10:06:36;13.50;;;7.40;;
54871;SDS011;43914;57.680;11.982;2023-03-23T10:09:02;15.80;;;8.00;;
54871;SDS011;43914;57.680;11.982;2023-03-23T10:11:37;16.00;;;9.10;;
54871;SDS011;43914;57.680;11.982;2023-03-23T10:17:11;16.60;;;8.60;;
54871;SDS011;43914;57.680;11.982;2023-03-23T10:19:55;17.00;;;9.50;;
54871;SDS011;43914;57.680;11.982;2023-03-23T10:22:34;16.50;;;8.20;;
54871;SDS011;43914;57.680;11.982;2023-03-23T10:30:27;15.80;;;6.70;;
54871;SDS011;43914;57.680;11.982;2023-03-23T10:35:54;11.20;;;4.70;;
54871;SDS011;43914;57.680;11.982;2023-03-23T10:38:35;12.20;;;5.10;;
54871;SDS011;43914;57.680;11.982;2023-03-23T10:41:04;13.00;;;4.80;;
54871;SDS011;43914;57.680;11.982;2023-03-23T10:43:36;12.90;;;4.80;;
54871;SDS011;43914;57.680;11.982;2023-03-23T10:46:05;10.90;;;4.10;;
54871;SDS011;43914;57.680;11.982;2023-03-23T10:48:41;8.60;;;3.20;;
54871;SDS011;43914;57.680;11.982;2023-03-23T10:51:12;10.80;;;3.10;;
54871;SDS011;43914;57.680;11.982;2023-03-23T10:53:45;11.40;;;3.50;;
54871;SDS011;43914;57.680;11.982;2023-03-23T10:56:22;10.70;;;3.10;;
54871;SDS011;43914;57.680;11.982;2023-03-23T10:58:52;8.70;;;2.70;;
54871;SDS011;43914;57.680;11.982;2023-03-23T11:01:19;8.60;;;2.30;;
54871;SDS011;43914;57.680;11.982;2023-03-23T11:03:53;8.60;;;2.40;;
54871;SDS011;43914;57.680;11.982;2023-03-23T11:06:23;7.40;;;1.80;;
54871;SDS011;43914;57.680;11.982;2023-03-23T11:09:10;7.00;;;2.00;;
54871;SDS011;43914;57.680;11.982;2023-03-23T11:11:43;7.90;;;2.30;;
54871;SDS011;43914;57.680;11.982;2023-03-23T11:16:59;9.40;;;2.10;;
54871;SDS011;43914;57.680;11.982;2023-03-23T11:19:28;12.00;;;2.30;;
54871;SDS011;43914;57.680;11.982;2023-03-23T11:24:41;9.00;;;2.40;;
54871;SDS011;43914;57.680;11.982;2023-03-23T11:27:09;8.80;;;2.00;;
54871;SDS011;43914;57.680;11.982;2023-03-23T11:29:36;10.70;;;2.30;;
54871;SDS011;43914;57.680;11.982;2023-03-23T11:32:14;10.90;;;1.90;;
54871;SDS011;43914;57.680;11.982;2023-03-23T11:34:42;13.80;;;2.40;;
54871;SDS011;43914;57.680;11.982;2023-03-23T11:37:30;9.30;;;2.10;;
54871;SDS011;43914;57.680;11.982;2023-03-23T11:40:00;8.90;;;1.80;;
54871;SDS011;43914;57.680;11.982;2023-03-23T11:42:42;9.30;;;2.00;;
54871;SDS011;43914;57.680;11.982;2023-03-23T11:45:15;7.00;;;1.60;;
54871;SDS011;43914;57.680;11.982;2023-03-23T11:47:43;7.90;;;2.20;;
54871;SDS011;43914;57.680;11.982;2023-03-23T11:50:44;8.80;;;2.00;;
54871;SDS011;43914;57.680;11.982;2023-03-23T11:58:15;5.90;;;1.30;;
54871;SDS011;43914;57.680;11.982;2023-03-23T12:00:45;7.90;;;1.70;;
54871;SDS011;43914;57.680;11.982;2023-03-23T12:06:13;9.10;;;2.40;;
54871;SDS011;43914;57.680;11.982;2023-03-23T12:14:21;5.90;;;1.40;;
54871;SDS011;43914;57.680;11.982;2023-03-23T12:17:20;7.00;;;1.60;;
54871;SDS011;43914;57.680;11.982;2023-03-23T12:20:20;6.50;;;1.30;;
54871;SDS011;43914;57.680;11.982;2023-03-23T12:39:42;5.60;;;1.30;;
54871;SDS011;43914;57.680;11.982;2023-03-23T12:44:27;6.00;;;1.40;;
54871;SDS011;43914;57.680;11.982;2023-03-23T12:55:42;9.70;;;2.00;;
54871;SDS011;43914;57.680;11.982;2023-03-23T13:11:55;6.40;;;1.70;;
54871;SDS011;43914;57.680;11.982;2023-03-23T13:26:09;13.20;;;2.10;;
54871;SDS011;43914;57.680;11.982;2023-03-23T13:31:32;15.30;;;2.40;;
54871;SDS011;43914;57.680;11.982;2023-03-23T13:36:38;10.20;;;1.90;;
54871;SDS011;43914;57.680;11.982;2023-03-23T13:39:06;9.40;;;2.00;;
54871;SDS011;43914;57.680;11.982;2023-03-23T13:41:48;15.50;;;2.30;;
54871;SDS011;43914;57.680;11.982;2023-03-23T13:52:21;13.20;;;2.10;;
54871;SDS011;43914;57.680;11.982;2023-03-23T13:54:49;10.30;;;1.90;;
54871;SDS011;43914;57.680;11.982;2023-03-23T13:57:32;10.40;;;2.20;;
54871;SDS011;43914;57.680;11.982;2023-03-23T14:03:04;12.10;;;2.20;;
54871;SDS011;43914;57.680;11.982;2023-03-23T14:05:42;12.10;;;1.90;;
54871;SDS011;43914;57.680;11.982;2023-03-23T14:13:29;14.50;;;2.60;;
54871;SDS011;43914;57.680;11.982;2023-03-23T14:15:57;12.30;;;2.40;;
54871;SDS011;43914;57.680;11.982;2023-03-23T14:18:30;12.30;;;2.50;;
54871;SDS011;43914;57.680;11.982;2023-03-23T14:21:00;12.20;;;2.20;;
54871;SDS011;43914;57.680;11.982;2023-03-23T14:23:27;13.00;;;2.40;;
54871;SDS011;43914;57.680;11.982;2023-03-23T14:25:56;11.80;;;1.90;;
54871;SDS011;43914;57.680;11.982;2023-03-23T14:28:38;12.60;;;2.30;;
54871;SDS011;43914;57.680;11.982;2023-03-23T14:31:12;14.10;;;2.20;;
54871;SDS011;43914;57.680;11.982;2023-03-23T14:33:43;13.30;;;2.20;;
54871;SDS011;43914;57.680;11.982;2023-03-23T14:36:08;12.70;;;2.60;;
54871;SDS011;43914;57.680;11.982;2023-03-23T14:38:34;12.80;;;2.00;;
54871;SDS011;43914;57.680;11.982;2023-03-23T14:41:01;16.00;;;2.70;;
54871;SDS011;43914;57.680;11.982;2023-03-23T14:43:28;14.00;;;2.60;;
54871;SDS011;43914;57.680;11.982;2023-03-23T14:45:55;15.40;;;2.70;;
54871;SDS011;43914;57.680;11.982;2023-03-23T14:48:24;14.90;;;2.40;;
54871;SDS011;43914;57.680;11.982;2023-03-23T14:50:52;15.60;;;2.70;;
54871;SDS011;43914;57.680;11.982;2023-03-23T14:53:32;13.90;;;2.30;;
54871;SDS011;43914;57.680;11.982;2023-03-23T14:56:03;15.10;;;3.00;;
54871;SDS011;43914;57.680;11.982;2023-03-23T14:58:37;13.10;;;2.50;;
54871;SDS011;43914;57.680;11.982;2023-03-23T15:01:07;15.70;;;2.80;;
54871;SDS011;43914;57.680;11.982;2023-03-23T15:03:42;14.40;;;2.70;;
54871;SDS011;43914;57.680;11.982;2023-03-23T15:06:16;13.10;;;2.60;;
54871;SDS011;43914;57.680;11.982;2023-03-23T15:08:45;19.10;;;3.30;;
54871;SDS011;43914;57.680;11.982;2023-03-23T15:13:45;19.80;;;3.40;;
54871;SDS011;43914;57.680;11.982;2023-03-23T15:18:51;16.30;;;3.00;;
54871;SDS011;43914;57.680;11.982;2023-03-23T15:21:24;17.20;;;3.10;;
54871;SDS011;43914;57.680;11.982;2023-03-23T15:23:53;17.20;;;3.20;;
54871;SDS011;43914;57.680;11.982;2023-03-23T15:28:48;15.60;;;2.90;;
54871;SDS011;43914;57.680;11.982;2023-03-23T15:31:13;20.80;;;2.70;;
54871;SDS011;43914;57.680;11.982;2023-03-23T15:33:40;19.30;;;2.80;;
54871;SDS011;43914;57.680;11.982;2023-03-23T15:36:07;17.90;;;2.80;;
54871;SDS011;43914;57.680;11.982;2023-03-23T15:41:24;17.80;;;3.10;;
54871;SDS011;43914;57.680;11.982;2023-03-23T15:43:53;16.00;;;2.60;;
54871;SDS011;43914;57.680;11.982;2023-03-23T15:46:24;17.90;;;3.30;;
54871;SDS011;43914;57.680;11.982;2023-03-23T15:51:21;17.50;;;3.20;;
54871;SDS011;43914;57.680;11.982;2023-03-23T15:53:56;17.20;;;3.20;;
54871;SDS011;43914;57.680;11.982;2023-03-23T15:56:22;17.90;;;2.80;;
54871;SDS011;43914;57.680;11.982;2023-03-23T15:58:49;17.30;;;3.10;;
54871;SDS011;43914;57.680;11.982;2023-03-23T16:01:17;14.60;;;2.40;;
54871;SDS011;43914;57.680;11.982;2023-03-23T16:03:52;18.50;;;3.00;;
54871;SDS011;43914;57.680;11.982;2023-03-23T16:06:25;18.60;;;3.00;;
54871;SDS011;43914;57.680;11.982;2023-03-23T16:08:52;16.30;;;3.00;;
54871;SDS011;43914;57.680;11.982;2023-03-23T16:11:21;20.80;;;3.20;;
54871;SDS011;43914;57.680;11.982;2023-03-23T16:13:50;19.30;;;2.80;;
54871;SDS011;43914;57.680;11.982;2023-03-23T16:16:17;19.10;;;2.90;;
54871;SDS011;43914;57.680;11.982;2023-03-23T16:18:46;21.30;;;4.00;;
54871;SDS011;43914;57.680;11.982;2023-03-23T16:21:14;20.30;;;3.20;;
54871;SDS011;43914;57.680;11.982;2023-03-23T16:23:40;25.70;;;3.30;;
54871;SDS011;43914;57.680;11.982;2023-03-23T16:26:08;18.30;;;3.20;;
54871;SDS011;43914;57.680;11.982;2023-03-23T16:28:34;20.70;;;3.00;;
54871;SDS011;43914;57.680;11.982;2023-03-23T16:30:59;16.70;;;3.30;;
54871;SDS011;43914;57.680;11.982;2023-03-23T16:33:24;21.10;;;3.50;;
54871;SDS011;43914;57.680;11.982;2023-03-23T16:35:50;18.60;;;2.90;;
54871;SDS011;43914;57.680;11.982;2023-03-23T16:38:16;18.80;;;3.50;;
54871;SDS011;43914;57.680;11.982;2023-03-23T16:40:42;17.50;;;2.80;;
54871;SDS011;43914;57.680;11.982;2023-03-23T16:43:09;17.10;;;2.80;;
54871;SDS011;43914;57.680;11.982;2023-03-23T16:45:36;19.10;;;2.60;;
54871;SDS011;43914;57.680;11.982;2023-03-23T16:48:04;17.30;;;2.60;;
54871;SDS011;43914;57.680;11.982;2023-03-23T16:50:30;19.60;;;2.70;;
54871;SDS011;43914;57.680;11.982;2023-03-23T16:52:59;17.80;;;3.00;;
54871;SDS011;43914;57.680;11.982;2023-03-23T16:55:25;13.80;;;3.10;;
54871;SDS011;43914;57.680;11.982;2023-03-23T16:57:52;18.20;;;2.30;;
54871;SDS011;43914;57.680;11.982;2023-03-23T17:00:18;19.80;;;2.80;;
54871;SDS011;43914;57.680;11.982;2023-03-23T17:02:45;20.80;;;2.80;;
54871;SDS011;43914;57.680;11.982;2023-03-23T17:05:12;12.20;;;2.50;;
54871;SDS011;43914;57.680;11.982;2023-03-23T17:07:39;18.70;;;3.10;;
54871;SDS011;43914;57.680;11.982;2023-03-23T17:10:06;16.20;;;2.30;;
54871;SDS011;43914;57.680;11.982;2023-03-23T17:12:34;14.60;;;2.60;;